sensor_id;sensor_type;location;lat;lon;timestamp;pressure;altitude;pressure_sealevel;temperature;humidity
48216;BME280;34005;48.844;10.098;2023-04-27T00:00:34;96763.88;;;8.68;53.91
48216;BME280;34005;48.844;10.098;2023-04-27T00:03:02;96766.78;;;8.65;54.39
48216;BME280;34005;48.844;10.098;2023-04-27T00:05:33;96771.03;;;8.66;56.07
48216;BME280;34005;48.844;10.098;2023-04-27T00:08:01;96762.06;;;8.69;55.88
48216;BME280;34005;48.844;10.098;2023-04-27T00:10:28;96759.13;;;8.72;56.03
48216;BME280;34005;48.844;10.098;2023-04-27T00:12:56;96758.81;;;8.75;55.43
48216;BME280;34005;48.844;10.098;2023-04-27T00:15:24;96756.22;;;8.75;54.88
48216;BME280;34005;48.844;10.098;2023-04-27T00:17:53;96762.72;;;8.71;54.75
48216;BME280;34005;48.844;10.098;2023-04-27T00:20:20;96751.66;;;8.69;54.82
48216;BME280;34005;48.844;10.098;2023-04-27T00:22:48;96752.63;;;8.68;54.79
48216;BME280;34005;48.844;10.098;2023-04-27T00:25:16;96747.13;;;8.62;54.92
48216;BME280;34005;48.844;10.098;2023-04-27T00:27:44;96753.63;;;8.58;55.17
48216;BME280;34005;48.844;10.098;2023-04-27T00:30:11;96749.91;;;8.53;55.11
48216;BME280;34005;48.844;10.098;2023-04-27T00:32:39;96735.44;;;8.50;55.27
48216;BME280;34005;48.844;10.098;2023-04-27T00:35:09;96744.22;;;8.49;55.56
48216;BME280;34005;48.844;10.098;2023-04-27T00:37:37;96734.63;;;8.50;55.66
48216;BME280;34005;48.844;10.098;2023-04-27T00:40:06;96737.38;;;8.48;55.32
48216;BME280;34005;48.844;10.098;2023-04-27T00:42:34;96736.13;;;8.44;55.29
48216;BME280;34005;48.844;10.098;2023-04-27T00:45:03;96734.13;;;8.38;55.40
48216;BME280;34005;48.844;10.098;2023-04-27T00:47:31;96739.00;;;8.33;55.70
48216;BME280;34005;48.844;10.098;2023-04-27T00:49:59;96735.09;;;8.29;55.64
48216;BME280;34005;48.844;10.098;2023-04-27T00:52:28;96736.44;;;8.24;56.06
48216;BME280;34005;48.844;10.098;2023-04-27T00:54:56;96729.28;;;8.18;56.03
48216;BME280;34005;48.844;10.098;2023-04-27T00:57:24;96739.31;;;8.13;56.32
48216;BME280;34005;48.844;10.098;2023-04-27T00:59:52;96740.00;;;8.07;56.25
48216;BME280;34005;48.844;10.098;2023-04-27T01:02:19;96737.25;;;8.00;56.27
48216;BME280;34005;48.844;10.098;2023-04-27T01:04:48;96737.69;;;7.96;56.48
48216;BME280;34005;48.844;10.098;2023-04-27T01:07:17;96734.78;;;7.91;56.88
48216;BME280;34005;48.844;10.098;2023-04-27T01:09:46;96737.06;;;7.86;56.82
48216;BME280;34005;48.844;10.098;2023-04-27T01:12:13;96732.19;;;7.82;57.24
48216;BME280;34005;48.844;10.098;2023-04-27T01:14:41;96735.09;;;7.79;57.40
48216;BME280;34005;48.844;10.098;2023-04-27T01:17:08;96744.84;;;7.77;57.47
48216;BME280;34005;48.844;10.098;2023-04-27T01:19:37;96736.09;;;7.78;58.08
48216;BME280;34005;48.844;10.098;2023-04-27T01:22:05;96737.06;;;7.77;57.56
48216;BME280;34005;48.844;10.098;2023-04-27T01:24:34;96740.78;;;7.75;57.62
48216;BME280;34005;48.844;10.098;2023-04-27T01:27:02;96743.88;;;7.70;58.04
48216;BME280;34005;48.844;10.098;2023-04-27T01:29:30;96739.97;;;7.66;57.72
48216;BME280;34005;48.844;10.098;2023-04-27T01:31:58;96744.00;;;7.60;57.75
48216;BME280;34005;48.844;10.098;2023-04-27T01:34:25;96745.47;;;7.55;58.11
48216;BME280;34005;48.844;10.098;2023-04-27T01:36:53;96746.09;;;7.49;58.16
48216;BME280;34005;48.844;10.098;2023-04-27T01:39:21;96740.56;;;7.43;57.88
48216;BME280;34005;48.844;10.098;2023-04-27T01:41:49;96747.84;;;7.40;57.89
48216;BME280;34005;48.844;10.098;2023-04-27T01:44:17;96737.94;;;7.35;57.76
48216;BME280;34005;48.844;10.098;2023-04-27T01:46:46;96740.19;;;7.30;58.02
48216;BME280;34005;48.844;10.098;2023-04-27T01:49:13;96739.84;;;7.25;58.24
48216;BME280;34005;48.844;10.098;2023-04-27T01:51:42;96740.31;;;7.20;58.43
48216;BME280;34005;48.844;10.098;2023-04-27T01:54:09;96739.16;;;7.15;58.04
48216;BME280;34005;48.844;10.098;2023-04-27T01:56:37;96742.88;;;7.12;58.65
48216;BME280;34005;48.844;10.098;2023-04-27T01:59:05;96748.69;;;7.06;58.79
48216;BME280;34005;48.844;10.098;2023-04-27T02:01:33;96738.50;;;7.05;58.57
48216;BME280;34005;48.844;10.098;2023-04-27T02:04:00;96746.41;;;7.03;58.41
48216;BME280;34005;48.844;10.098;2023-04-27T02:06:29;96749.16;;;7.01;58.53
48216;BME280;34005;48.844;10.098;2023-04-27T02:08:57;96744.94;;;7.00;58.55
48216;BME280;34005;48.844;10.098;2023-04-27T02:11:25;96740.72;;;6.99;58.80
48216;BME280;34005;48.844;10.098;2023-04-27T02:13:53;96753.03;;;6.97;58.48
48216;BME280;34005;48.844;10.098;2023-04-27T02:16:21;96742.66;;;6.97;58.46
48216;BME280;34005;48.844;10.098;2023-04-27T02:18:49;96749.81;;;6.95;58.40
48216;BME280;34005;48.844;10.098;2023-04-27T02:21:18;96758.38;;;6.96;58.47
48216;BME280;34005;48.844;10.098;2023-04-27T02:23:47;96757.13;;;7.00;58.88
48216;BME280;34005;48.844;10.098;2023-04-27T02:26:15;96756.66;;;7.05;58.45
48216;BME280;34005;48.844;10.098;2023-04-27T02:28:44;96759.72;;;7.08;58.10
48216;BME280;34005;48.844;10.098;2023-04-27T02:31:12;96766.69;;;7.08;58.24
48216;BME280;34005;48.844;10.098;2023-04-27T02:33:41;96757.31;;;7.07;58.36
48216;BME280;34005;48.844;10.098;2023-04-27T02:36:09;96759.25;;;7.05;58.28
48216;BME280;34005;48.844;10.098;2023-04-27T02:38:36;96756.13;;;7.01;57.97
48216;BME280;34005;48.844;10.098;2023-04-27T02:41:04;96748.50;;;6.99;58.11
48216;BME280;34005;48.844;10.098;2023-04-27T02:43:31;96756.59;;;6.96;58.12
48216;BME280;34005;48.844;10.098;2023-04-27T02:46:01;96754.16;;;6.95;58.22
48216;BME280;34005;48.844;10.098;2023-04-27T02:48:29;96751.56;;;6.95;58.49
48216;BME280;34005;48.844;10.098;2023-04-27T02:50:58;96750.75;;;6.94;58.70
48216;BME280;34005;48.844;10.098;2023-04-27T02:53:26;96750.59;;;6.96;58.56
48216;BME280;34005;48.844;10.098;2023-04-27T02:55:53;96754.66;;;6.98;58.67
48216;BME280;34005;48.844;10.098;2023-04-27T02:58:21;96760.19;;;7.04;58.41
48216;BME280;34005;48.844;10.098;2023-04-27T03:00:52;96756.47;;;7.06;58.47
48216;BME280;34005;48.844;10.098;2023-04-27T03:03:20;96763.81;;;7.11;57.98
48216;BME280;34005;48.844;10.098;2023-04-27T03:05:48;96759.44;;;7.11;58.16
48216;BME280;34005;48.844;10.098;2023-04-27T03:08:17;96768.69;;;7.14;58.10
48216;BME280;34005;48.844;10.098;2023-04-27T03:10:45;96762.50;;;7.15;58.12
48216;BME280;34005;48.844;10.098;2023-04-27T03:13:13;96761.88;;;7.13;57.94
48216;BME280;34005;48.844;10.098;2023-04-27T03:15:40;96763.81;;;7.11;57.48
48216;BME280;34005;48.844;10.098;2023-04-27T03:18:08;96765.09;;;7.07;57.72
48216;BME280;34005;48.844;10.098;2023-04-27T03:20:36;96772.22;;;7.05;58.01
48216;BME280;34005;48.844;10.098;2023-04-27T03:23:04;96769.25;;;6.99;57.85
48216;BME280;34005;48.844;10.098;2023-04-27T03:25:33;96776.38;;;6.97;58.08
48216;BME280;34005;48.844;10.098;2023-04-27T03:28:01;96772.16;;;6.96;58.04
48216;BME280;34005;48.844;10.098;2023-04-27T03:30:28;96772.97;;;6.97;58.11
48216;BME280;34005;48.844;10.098;2023-04-27T03:32:56;96781.25;;;7.00;58.14
48216;BME280;34005;48.844;10.098;2023-04-27T03:35:24;96766.38;;;7.03;58.00
48216;BME280;34005;48.844;10.098;2023-04-27T03:37:52;96774.81;;;7.05;57.83
48216;BME280;34005;48.844;10.098;2023-04-27T03:40:20;96776.41;;;7.06;57.81
48216;BME280;34005;48.844;10.098;2023-04-27T03:42:49;96774.94;;;7.03;57.88
48216;BME280;34005;48.844;10.098;2023-04-27T03:45:16;96775.75;;;7.04;58.31
48216;BME280;34005;48.844;10.098;2023-04-27T03:47:47;96784.84;;;7.08;58.47
48216;BME280;34005;48.844;10.098;2023-04-27T03:50:15;96781.00;;;7.12;58.65
48216;BME280;34005;48.844;10.098;2023-04-27T03:52:42;96782.31;;;7.16;58.31
48216;BME280;34005;48.844;10.098;2023-04-27T03:55:10;96781.50;;;7.15;58.28
48216;BME280;34005;48.844;10.098;2023-04-27T03:57:38;96777.44;;;7.13;57.90
48216;BME280;34005;48.844;10.098;2023-04-27T04:00:08;96782.91;;;7.10;57.67
48216;BME280;34005;48.844;10.098;2023-04-27T04:02:37;96779.81;;;7.06;57.78
48216;BME280;34005;48.844;10.098;2023-04-27T04:05:05;96780.66;;;7.07;57.74
48216;BME280;34005;48.844;10.098;2023-04-27T04:07:34;96774.00;;;7.04;57.52
48216;BME280;34005;48.844;10.098;2023-04-27T04:10:02;96775.94;;;7.02;57.61
48216;BME280;34005;48.844;10.098;2023-04-27T04:12:30;96773.47;;;7.00;57.40
48216;BME280;34005;48.844;10.098;2023-04-27T04:14:57;96775.41;;;6.98;57.64
48216;BME280;34005;48.844;10.098;2023-04-27T04:17:26;96775.41;;;6.98;57.78
48216;BME280;34005;48.844;10.098;2023-04-27T04:19:54;96781.41;;;6.99;57.79
48216;BME280;34005;48.844;10.098;2023-04-27T04:22:21;96780.75;;;6.97;57.67
48216;BME280;34005;48.844;10.098;2023-04-27T04:24:49;96796.47;;;6.95;58.00
48216;BME280;34005;48.844;10.098;2023-04-27T04:27:16;96787.88;;;6.95;57.64
48216;BME280;34005;48.844;10.098;2023-04-27T04:29:44;96791.78;;;6.99;57.77
48216;BME280;34005;48.844;10.098;2023-04-27T04:32:12;96798.16;;;7.05;57.65
48216;BME280;34005;48.844;10.098;2023-04-27T04:34:47;96792.34;;;7.11;57.12
48216;BME280;34005;48.844;10.098;2023-04-27T04:37:14;96786.19;;;7.12;56.84
48216;BME280;34005;48.844;10.098;2023-04-27T04:39:44;96777.44;;;7.13;56.76
48216;BME280;34005;48.844;10.098;2023-04-27T04:42:11;96773.72;;;7.15;56.57
48216;BME280;34005;48.844;10.098;2023-04-27T04:44:39;96776.78;;;7.19;56.44
48216;BME280;34005;48.844;10.098;2023-04-27T04:47:06;96780.03;;;7.21;56.53
48216;BME280;34005;48.844;10.098;2023-04-27T04:49:35;96800.34;;;7.26;57.50
48216;BME280;34005;48.844;10.098;2023-04-27T04:52:04;96796.31;;;7.31;57.33
48216;BME280;34005;48.844;10.098;2023-04-27T04:54:31;96793.25;;;7.36;56.58
48216;BME280;34005;48.844;10.098;2023-04-27T04:56:59;96804.13;;;7.39;56.37
48216;BME280;34005;48.844;10.098;2023-04-27T04:59:27;96805.47;;;7.43;56.20
48216;BME280;34005;48.844;10.098;2023-04-27T05:01:57;96806.75;;;7.48;56.29
48216;BME280;34005;48.844;10.098;2023-04-27T05:04:25;96806.44;;;7.51;55.28
48216;BME280;34005;48.844;10.098;2023-04-27T05:06:52;96796.06;;;7.51;54.95
48216;BME280;34005;48.844;10.098;2023-04-27T05:09:21;96803.84;;;7.51;54.56
48216;BME280;34005;48.844;10.098;2023-04-27T05:11:49;96795.72;;;7.54;54.39
48216;BME280;34005;48.844;10.098;2023-04-27T05:14:16;96791.84;;;7.58;53.83
48216;BME280;34005;48.844;10.098;2023-04-27T05:16:44;96796.75;;;7.61;53.46
48216;BME280;34005;48.844;10.098;2023-04-27T05:19:14;96799.69;;;7.66;53.76
48216;BME280;34005;48.844;10.098;2023-04-27T05:21:43;96800.66;;;7.73;53.44
48216;BME280;34005;48.844;10.098;2023-04-27T05:24:11;96798.72;;;7.75;53.07
48216;BME280;34005;48.844;10.098;2023-04-27T05:26:41;96806.03;;;7.80;53.07
48216;BME280;34005;48.844;10.098;2023-04-27T05:29:09;96802.00;;;7.86;55.09
48216;BME280;34005;48.844;10.098;2023-04-27T05:31:37;96810.75;;;7.93;53.47
48216;BME280;34005;48.844;10.098;2023-04-27T05:34:04;96810.13;;;7.99;53.24
48216;BME280;34005;48.844;10.098;2023-04-27T05:36:33;96808.66;;;8.04;52.48
48216;BME280;34005;48.844;10.098;2023-04-27T05:39:01;96815.00;;;8.10;52.79
48216;BME280;34005;48.844;10.098;2023-04-27T05:41:29;96809.84;;;8.18;52.76
48216;BME280;34005;48.844;10.098;2023-04-27T05:43:58;96821.19;;;8.25;51.77
48216;BME280;34005;48.844;10.098;2023-04-27T05:46:26;96816.97;;;8.33;51.94
48216;BME280;34005;48.844;10.098;2023-04-27T05:48:53;96810.31;;;8.38;51.63
48216;BME280;34005;48.844;10.098;2023-04-27T05:51:21;96810.66;;;8.43;51.58
48216;BME280;34005;48.844;10.098;2023-04-27T05:53:48;96814.56;;;8.48;51.24
48216;BME280;34005;48.844;10.098;2023-04-27T05:56:19;96816.69;;;8.52;51.67
48216;BME280;34005;48.844;10.098;2023-04-27T05:58:46;96807.59;;;8.56;50.80
48216;BME280;34005;48.844;10.098;2023-04-27T06:01:15;96812.47;;;8.59;50.67
48216;BME280;34005;48.844;10.098;2023-04-27T06:03:43;96818.78;;;8.65;50.52
48216;BME280;34005;48.844;10.098;2023-04-27T06:06:11;96821.53;;;8.72;51.06
48216;BME280;34005;48.844;10.098;2023-04-27T06:08:39;96828.34;;;8.81;51.42
48216;BME280;34005;48.844;10.098;2023-04-27T06:11:06;96819.75;;;8.89;53.38
48216;BME280;34005;48.844;10.098;2023-04-27T06:13:34;96824.09;;;8.96;52.21
48216;BME280;34005;48.844;10.098;2023-04-27T06:16:01;96824.44;;;9.01;51.08
48216;BME280;34005;48.844;10.098;2023-04-27T06:18:30;96824.75;;;9.06;50.63
48216;BME280;34005;48.844;10.098;2023-04-27T06:20:58;96825.03;;;9.12;50.27
48216;BME280;34005;48.844;10.098;2023-04-27T06:23:27;96823.72;;;9.16;49.66
48216;BME280;34005;48.844;10.098;2023-04-27T06:25:55;96831.88;;;9.21;49.92
48216;BME280;34005;48.844;10.098;2023-04-27T06:28:24;96836.56;;;9.25;49.48
48216;BME280;34005;48.844;10.098;2023-04-27T06:30:52;96839.31;;;9.32;49.01
48216;BME280;34005;48.844;10.098;2023-04-27T06:33:19;96844.50;;;9.40;49.88
48216;BME280;34005;48.844;10.098;2023-04-27T06:35:48;96844.44;;;9.48;49.00
48216;BME280;34005;48.844;10.098;2023-04-27T06:38:16;96853.03;;;9.57;49.02
48216;BME280;34005;48.844;10.098;2023-04-27T06:40:44;96850.41;;;9.65;52.31
48216;BME280;34005;48.844;10.098;2023-04-27T06:43:16;96849.38;;;9.75;50.49
48216;BME280;34005;48.844;10.098;2023-04-27T06:45:43;96850.34;;;9.82;49.12
48216;BME280;34005;48.844;10.098;2023-04-27T06:48:11;96845.59;;;9.85;48.60
48216;BME280;34005;48.844;10.098;2023-04-27T06:50:39;96846.53;;;9.93;48.70
48216;BME280;34005;48.844;10.098;2023-04-27T06:53:08;96845.84;;;9.99;48.04
48216;BME280;34005;48.844;10.098;2023-04-27T06:55:36;96843.56;;;10.04;50.01
48216;BME280;34005;48.844;10.098;2023-04-27T06:58:04;96849.31;;;10.14;50.86
48216;BME280;34005;48.844;10.098;2023-04-27T07:00:31;96847.03;;;10.19;49.31
48216;BME280;34005;48.844;10.098;2023-04-27T07:02:59;96850.28;;;10.21;48.11
48216;BME280;34005;48.844;10.098;2023-04-27T07:05:27;96847.47;;;10.23;47.98
48216;BME280;34005;48.844;10.098;2023-04-27T07:07:55;96846.00;;;10.28;48.56
48216;BME280;34005;48.844;10.098;2023-04-27T07:10:24;96844.50;;;10.34;47.58
48216;BME280;34005;48.844;10.098;2023-04-27T07:12:52;96844.66;;;10.41;47.64
48216;BME280;34005;48.844;10.098;2023-04-27T07:15:20;96848.16;;;10.48;47.45
48216;BME280;34005;48.844;10.098;2023-04-27T07:17:48;96847.63;;;10.52;47.71
48216;BME280;34005;48.844;10.098;2023-04-27T07:20:15;96838.91;;;10.60;47.38
48216;BME280;34005;48.844;10.098;2023-04-27T07:22:43;96843.09;;;10.69;50.58
48216;BME280;34005;48.844;10.098;2023-04-27T07:25:11;96843.00;;;10.78;50.52
48216;BME280;34005;48.844;10.098;2023-04-27T07:27:40;96849.97;;;10.85;48.13
48216;BME280;34005;48.844;10.098;2023-04-27T07:30:08;96848.09;;;10.94;48.32
48216;BME280;34005;48.844;10.098;2023-04-27T07:32:39;96850.91;;;11.07;48.09
48216;BME280;34005;48.844;10.098;2023-04-27T07:35:07;96849.50;;;11.20;47.44
48216;BME280;34005;48.844;10.098;2023-04-27T07:37:36;96854.44;;;11.29;47.48
48216;BME280;34005;48.844;10.098;2023-04-27T07:40:04;96855.94;;;11.39;46.63
48216;BME280;34005;48.844;10.098;2023-04-27T07:42:40;96850.81;;;11.45;45.31
48216;BME280;34005;48.844;10.098;2023-04-27T07:45:09;96851.53;;;11.54;45.84
48216;BME280;34005;48.844;10.098;2023-04-27T07:47:37;96851.28;;;11.64;45.29
48216;BME280;34005;48.844;10.098;2023-04-27T07:50:06;96850.81;;;11.75;45.60
48216;BME280;34005;48.844;10.098;2023-04-27T07:52:33;96848.00;;;11.91;46.15
48216;BME280;34005;48.844;10.098;2023-04-27T07:55:01;96853.00;;;12.08;45.51
48216;BME280;34005;48.844;10.098;2023-04-27T07:57:30;96854.47;;;12.32;44.86
48216;BME280;34005;48.844;10.098;2023-04-27T07:59:58;96842.63;;;12.57;44.38
48216;BME280;34005;48.844;10.098;2023-04-27T08:02:26;96842.84;;;12.84;44.79
48216;BME280;34005;48.844;10.098;2023-04-27T08:04:56;96847.03;;;13.07;44.85
48216;BME280;34005;48.844;10.098;2023-04-27T08:07:24;96846.00;;;13.29;43.89
48216;BME280;34005;48.844;10.098;2023-04-27T08:09:53;96849.56;;;13.56;43.89
48216;BME280;34005;48.844;10.098;2023-04-27T08:12:21;96842.59;;;13.77;42.78
48216;BME280;34005;48.844;10.098;2023-04-27T08:14:48;96844.72;;;14.01;42.06
48216;BME280;34005;48.844;10.098;2023-04-27T08:17:17;96849.81;;;14.30;41.12
48216;BME280;34005;48.844;10.098;2023-04-27T08:19:46;96840.78;;;14.39;41.67
48216;BME280;34005;48.844;10.098;2023-04-27T08:22:14;96843.19;;;14.54;43.57
48216;BME280;34005;48.844;10.098;2023-04-27T08:24:42;96842.41;;;14.73;40.92
48216;BME280;34005;48.844;10.098;2023-04-27T08:27:09;96841.41;;;14.88;40.08
48216;BME280;34005;48.844;10.098;2023-04-27T08:29:37;96840.19;;;14.97;39.40
48216;BME280;34005;48.844;10.098;2023-04-27T08:32:04;96840.19;;;15.10;39.10
48216;BME280;34005;48.844;10.098;2023-04-27T08:34:33;96851.50;;;15.24;38.22
48216;BME280;34005;48.844;10.098;2023-04-27T08:37:01;96843.59;;;15.37;38.86
48216;BME280;34005;48.844;10.098;2023-04-27T08:39:29;96843.09;;;15.60;38.40
48216;BME280;34005;48.844;10.098;2023-04-27T08:41:57;96847.94;;;15.77;38.64
48216;BME280;34005;48.844;10.098;2023-04-27T08:44:25;96841.78;;;15.96;41.22
48216;BME280;34005;48.844;10.098;2023-04-27T08:46:52;96841.69;;;16.16;38.94
48216;BME280;34005;48.844;10.098;2023-04-27T08:49:20;96832.31;;;16.27;38.58
48216;BME280;34005;48.844;10.098;2023-04-27T08:51:49;96830.88;;;16.31;37.70
48216;BME280;34005;48.844;10.098;2023-04-27T08:54:18;96832.31;;;16.27;37.38
48216;BME280;34005;48.844;10.098;2023-04-27T08:56:45;96825.22;;;16.27;37.31
48216;BME280;34005;48.844;10.098;2023-04-27T08:59:14;96833.66;;;16.36;37.71
48216;BME280;34005;48.844;10.098;2023-04-27T09:01:43;96832.34;;;16.52;40.51
48216;BME280;34005;48.844;10.098;2023-04-27T09:04:12;96829.25;;;16.62;37.51
48216;BME280;34005;48.844;10.098;2023-04-27T09:06:40;96829.56;;;16.72;37.16
48216;BME280;34005;48.844;10.098;2023-04-27T09:09:09;96819.78;;;16.79;42.43
48216;BME280;34005;48.844;10.098;2023-04-27T09:11:47;96814.91;;;16.83;38.00
48216;BME280;34005;48.844;10.098;2023-04-27T09:14:17;96823.44;;;16.78;36.60
48216;BME280;34005;48.844;10.098;2023-04-27T09:16:44;96811.03;;;16.85;37.10
48216;BME280;34005;48.844;10.098;2023-04-27T09:19:22;96814.72;;;17.03;37.15
48216;BME280;34005;48.844;10.098;2023-04-27T09:21:50;96816.94;;;17.24;40.22
48216;BME280;34005;48.844;10.098;2023-04-27T09:24:19;96816.81;;;17.38;35.76
48216;BME280;34005;48.844;10.098;2023-04-27T09:26:48;96814.25;;;17.49;35.01
48216;BME280;34005;48.844;10.098;2023-04-27T09:29:16;96811.31;;;17.58;35.19
48216;BME280;34005;48.844;10.098;2023-04-27T09:31:44;96820.19;;;17.63;35.17
48216;BME280;34005;48.844;10.098;2023-04-27T09:34:11;96810.13;;;17.72;35.18
48216;BME280;34005;48.844;10.098;2023-04-27T09:36:39;96806.56;;;17.85;35.09
48216;BME280;34005;48.844;10.098;2023-04-27T09:39:07;96804.53;;;17.99;35.13
48216;BME280;34005;48.844;10.098;2023-04-27T09:41:36;96804.25;;;18.07;34.14
48216;BME280;34005;48.844;10.098;2023-04-27T09:44:06;96800.47;;;18.15;33.79
48216;BME280;34005;48.844;10.098;2023-04-27T09:46:34;96800.81;;;18.18;33.73
48216;BME280;34005;48.844;10.098;2023-04-27T09:49:03;96794.44;;;18.26;35.30
48216;BME280;34005;48.844;10.098;2023-04-27T09:51:32;96802.59;;;18.36;34.49
48216;BME280;34005;48.844;10.098;2023-04-27T09:54:01;96798.25;;;18.53;33.62
48216;BME280;34005;48.844;10.098;2023-04-27T09:56:39;96793.59;;;18.67;32.32
48216;BME280;34005;48.844;10.098;2023-04-27T09:59:26;96797.63;;;18.70;31.05
48216;BME280;34005;48.844;10.098;2023-04-27T10:02:03;96800.94;;;18.65;31.97
48216;BME280;34005;48.844;10.098;2023-04-27T10:05:01;96802.91;;;18.70;31.25
48216;BME280;34005;48.844;10.098;2023-04-27T10:07:37;96799.56;;;18.74;31.82
48216;BME280;34005;48.844;10.098;2023-04-27T10:10:06;96795.34;;;18.85;33.93
48216;BME280;34005;48.844;10.098;2023-04-27T10:12:43;96801.44;;;18.98;31.79
48216;BME280;34005;48.844;10.098;2023-04-27T10:15:12;96797.19;;;18.97;31.51
48216;BME280;34005;48.844;10.098;2023-04-27T10:17:47;96802.00;;;19.00;31.25
48216;BME280;34005;48.844;10.098;2023-04-27T10:20:15;96798.91;;;19.03;34.16
48216;BME280;34005;48.844;10.098;2023-04-27T10:22:45;96795.25;;;19.16;32.23
48216;BME280;34005;48.844;10.098;2023-04-27T10:25:15;96800.41;;;19.22;31.93
48216;BME280;34005;48.844;10.098;2023-04-27T10:27:49;96799.44;;;19.28;36.87
48216;BME280;34005;48.844;10.098;2023-04-27T10:30:19;96796.25;;;19.38;35.19
48216;BME280;34005;48.844;10.098;2023-04-27T10:32:50;96801.97;;;19.47;37.30
48216;BME280;34005;48.844;10.098;2023-04-27T10:35:19;96793.31;;;19.51;32.70
48216;BME280;34005;48.844;10.098;2023-04-27T10:37:47;96786.53;;;19.55;36.36
48216;BME280;34005;48.844;10.098;2023-04-27T10:40:15;96785.47;;;19.68;35.51
48216;BME280;34005;48.844;10.098;2023-04-27T10:42:45;96780.06;;;19.75;31.95
48216;BME280;34005;48.844;10.098;2023-04-27T10:45:26;96789.84;;;19.74;33.91
48216;BME280;34005;48.844;10.098;2023-04-27T10:47:57;96786.03;;;19.82;32.38
48216;BME280;34005;48.844;10.098;2023-04-27T10:50:26;96787.66;;;19.83;33.73
48216;BME280;34005;48.844;10.098;2023-04-27T10:52:58;96786.59;;;19.84;32.66
48216;BME280;34005;48.844;10.098;2023-04-27T10:55:27;96785.66;;;19.90;35.26
48216;BME280;34005;48.844;10.098;2023-04-27T10:57:55;96781.22;;;19.96;31.56
48216;BME280;34005;48.844;10.098;2023-04-27T11:00:23;96781.22;;;19.96;30.98
48216;BME280;34005;48.844;10.098;2023-04-27T11:02:55;96777.47;;;19.92;30.05
48216;BME280;34005;48.844;10.098;2023-04-27T11:05:24;96772.44;;;19.79;29.91
48216;BME280;34005;48.844;10.098;2023-04-27T11:08:03;96785.25;;;19.70;29.65
48216;BME280;34005;48.844;10.098;2023-04-27T11:10:32;96784.00;;;19.72;34.25
48216;BME280;34005;48.844;10.098;2023-04-27T11:13:06;96777.72;;;19.79;32.60
48216;BME280;34005;48.844;10.098;2023-04-27T11:15:45;96774.41;;;19.83;29.90
48216;BME280;34005;48.844;10.098;2023-04-27T11:18:15;96774.78;;;19.75;30.45
48216;BME280;34005;48.844;10.098;2023-04-27T11:20:43;96770.06;;;19.77;32.01
48216;BME280;34005;48.844;10.098;2023-04-27T11:23:21;96768.78;;;19.80;31.39
48216;BME280;34005;48.844;10.098;2023-04-27T11:25:49;96776.34;;;19.88;31.05
48216;BME280;34005;48.844;10.098;2023-04-27T11:28:18;96773.28;;;19.96;30.84
48216;BME280;34005;48.844;10.098;2023-04-27T11:30:45;96776.63;;;20.03;30.98
48216;BME280;34005;48.844;10.098;2023-04-27T11:33:16;96772.53;;;20.12;32.24
48216;BME280;34005;48.844;10.098;2023-04-27T11:35:43;96772.06;;;20.15;30.84
48216;BME280;34005;48.844;10.098;2023-04-27T11:38:15;96770.53;;;20.20;30.38
48216;BME280;34005;48.844;10.098;2023-04-27T11:40:43;96765.88;;;20.27;31.78
48216;BME280;34005;48.844;10.098;2023-04-27T11:43:11;96755.38;;;20.32;31.12
48216;BME280;34005;48.844;10.098;2023-04-27T11:45:42;96765.25;;;20.36;31.96
48216;BME280;34005;48.844;10.098;2023-04-27T11:48:14;96764.88;;;20.45;34.46
48216;BME280;34005;48.844;10.098;2023-04-27T11:50:46;96767.94;;;20.53;31.30
48216;BME280;34005;48.844;10.098;2023-04-27T11:53:14;96773.91;;;20.61;33.87
48216;BME280;34005;48.844;10.098;2023-04-27T11:55:51;96761.84;;;20.70;34.01
48216;BME280;34005;48.844;10.098;2023-04-27T11:58:20;96770.69;;;20.75;31.46
48216;BME280;34005;48.844;10.098;2023-04-27T12:00:47;96762.00;;;20.80;33.56
48216;BME280;34005;48.844;10.098;2023-04-27T12:03:15;96760.13;;;20.81;30.60
48216;BME280;34005;48.844;10.098;2023-04-27T12:05:50;96766.09;;;20.71;30.08
48216;BME280;34005;48.844;10.098;2023-04-27T12:08:19;96765.72;;;20.62;30.63
48216;BME280;34005;48.844;10.098;2023-04-27T12:10:47;96767.88;;;20.65;33.25
48216;BME280;34005;48.844;10.098;2023-04-27T12:13:14;96772.44;;;20.70;32.05
48216;BME280;34005;48.844;10.098;2023-04-27T12:15:42;96774.63;;;20.73;31.60
48216;BME280;34005;48.844;10.098;2023-04-27T12:18:12;96759.69;;;20.67;30.15
48216;BME280;34005;48.844;10.098;2023-04-27T12:20:40;96766.50;;;20.63;29.72
48216;BME280;34005;48.844;10.098;2023-04-27T12:23:11;96762.22;;;20.62;31.44
48216;BME280;34005;48.844;10.098;2023-04-27T12:25:39;96765.63;;;20.57;30.68
48216;BME280;34005;48.844;10.098;2023-04-27T12:28:09;96759.47;;;20.40;29.70
48216;BME280;34005;48.844;10.098;2023-04-27T12:30:37;96759.22;;;20.24;29.47
48216;BME280;34005;48.844;10.098;2023-04-27T12:33:05;96771.09;;;20.22;31.45
48216;BME280;34005;48.844;10.098;2023-04-27T12:35:36;96768.00;;;20.25;31.62
48216;BME280;34005;48.844;10.098;2023-04-27T12:38:04;96768.22;;;20.23;30.68
48216;BME280;34005;48.844;10.098;2023-04-27T12:40:33;96764.66;;;20.17;29.40
48216;BME280;34005;48.844;10.098;2023-04-27T12:43:01;96763.88;;;20.17;32.46
48216;BME280;34005;48.844;10.098;2023-04-27T12:45:28;96761.72;;;20.14;30.23
48216;BME280;34005;48.844;10.098;2023-04-27T12:47:56;96754.22;;;20.11;32.25
48216;BME280;34005;48.844;10.098;2023-04-27T12:50:29;96757.38;;;20.08;29.60
48216;BME280;34005;48.844;10.098;2023-04-27T12:52:58;96751.16;;;20.02;29.58
48216;BME280;34005;48.844;10.098;2023-04-27T12:55:26;96750.28;;;19.96;29.51
48216;BME280;34005;48.844;10.098;2023-04-27T12:58:01;96759.41;;;19.89;28.98
48216;BME280;34005;48.844;10.098;2023-04-27T13:00:30;96760.13;;;19.84;30.72
48216;BME280;34005;48.844;10.098;2023-04-27T13:02:57;96748.47;;;19.85;30.32